Aérodrome :
LOGIN :

S'inscrire | Disclaimer

   EN    FR    IT 

 










Légende :    VFR   VFR Marginal   IFR   IFR Intensif   IFR Très Intensif
Visi : 
Plafond : 
>= 8 km
>= 3000ft
5 à 8 km
1000 à 3000 ft
1500m à 5 km
500 à 1000 ft
800 à 1500m
200 à 500 ft
< 800m
< 200 ft
Symboles :   Orages  Brouillard  Fortes neiges  Fortes précipitations  Vent > 20 kt
SIGMETs :   Divers  Orages  Givrage  Turbulence  Onde Orograph.  Cendres Volcan.






- Altitude de l'aérodrome : 18 ft
- Code IATA : AJA


LFKJ - Ajaccio

DERNIER METAR :
  • 031830Z AUTO 22007KT CAVOK 21/14 Q1009 BECMG SCT060TCU

METARs EXPIRÉS :
  • 031800Z AUTO 20007KT CAVOK 22/15 Q1009 BECMG SCT060TCU
  • 031730Z AUTO 22007KT CAVOK 22/15 Q1009 BECMG SCT060TCU
  • 031700Z AUTO 21007KT CAVOK 22/15 Q1009 BECMG SCT060TCU
  • 031630Z AUTO 23009KT CAVOK 23/16 Q1008 BECMG SCT060TCU
  • 031600Z AUTO 24006KT CAVOK 23/14 Q1009 NOSIG

TAF TAF LFKJ
Valide du 03 à 15h jusqu'au 04 à 15h UTC


031400Z 0315/0415 23010KT CAVOK
BECMG 0318/0321 05005KT SCT060TCU
PROB40
TEMPO 0323/0408 SHRA SCT040CB BKN090
BECMG 0410/0412 23012G23KT SCT023
ATIS : +33 4 95 23 59 85



MET'MAP, la Météo Aéronautique d'un coup d'oeil ! - Copyright ORBIFLY Décembre 2007 - Disclaimer

ORBIFLY MET'MAP TEAM :

Programmation & Développement : Alexandra Zaïnal
Sur une idée originale de : Baudouin d'Aumeries
Assistance à la programmation : Marc-Olivier Méhu
Soutien technique & logistique : Manuel Goepfert

Contact : metmap@orbifly.com




SOURCES & CREDITS :

   NOAA